createdAt,value
2019-03-10T00:00:31.727Z,10.30
2019-03-10T00:03:02.459Z,11.13
2019-03-10T00:05:33.109Z,13.70
2019-03-10T00:08:04.599Z,8.73
2019-03-10T00:10:36.242Z,8.93
2019-03-10T00:13:06.865Z,10.30
2019-03-10T00:15:37.509Z,8.93
2019-03-10T00:18:08.003Z,9.37
2019-03-10T00:20:38.469Z,5.63
2019-03-10T00:23:09.039Z,7.10
2019-03-10T00:25:41.055Z,7.03
2019-03-10T00:28:11.584Z,6.73
2019-03-10T00:30:42.603Z,7.00
2019-03-10T00:33:13.119Z,8.53
2019-03-10T00:35:43.825Z,7.57
2019-03-10T00:38:14.404Z,8.37
2019-03-10T00:41:23.236Z,8.10
2019-03-10T00:44:23.945Z,7.80
2019-03-10T00:47:32.773Z,7.10
2019-03-10T00:50:37.017Z,8.87
2019-03-10T00:53:10.333Z,8.57
2019-03-10T00:55:40.943Z,8.77
2019-03-10T00:58:11.551Z,8.90
2019-03-10T01:00:42.102Z,8.90
2019-03-10T01:03:12.692Z,9.47
2019-03-10T01:05:43.422Z,10.00
2019-03-10T01:08:13.889Z,9.80
2019-03-10T01:10:44.561Z,8.37
2019-03-10T01:13:15.259Z,9.47
2019-03-10T01:15:46.000Z,5.53
2019-03-10T01:18:17.126Z,4.93
2019-03-10T01:20:49.284Z,8.47
2019-03-10T01:23:19.803Z,6.90
2019-03-10T01:25:50.349Z,5.90
2019-03-10T01:28:20.768Z,5.07
2019-03-10T01:31:05.911Z,3.60
2019-03-10T01:34:15.154Z,2.63
2019-03-10T01:36:45.613Z,2.73
2019-03-10T01:39:16.152Z,2.03
2019-03-10T01:41:46.681Z,2.33
2019-03-10T01:44:17.146Z,2.33
2019-03-10T01:46:48.716Z,2.30
2019-03-10T01:49:19.403Z,2.17
2019-03-10T01:51:50.015Z,1.63
2019-03-10T01:54:20.587Z,1.80
2019-03-10T01:56:51.276Z,2.00
2019-03-10T01:59:21.919Z,1.30
2019-03-10T02:01:52.251Z,1.30
2019-03-10T02:04:22.828Z,0.87
2019-03-10T02:06:53.399Z,0.93
2019-03-10T02:09:24.054Z,0.80
2019-03-10T02:11:54.534Z,1.00
2019-03-10T02:14:25.193Z,1.37
2019-03-10T02:16:55.714Z,1.10
2019-03-10T02:19:26.123Z,1.20
2019-03-10T02:21:56.597Z,1.30
2019-03-10T02:24:29.961Z,1.00
2019-03-10T02:27:00.332Z,1.43
2019-03-10T02:29:30.895Z,1.47
2019-03-10T02:32:01.427Z,1.70
2019-03-10T02:34:31.993Z,2.40
2019-03-10T02:37:02.357Z,3.27
2019-03-10T02:39:35.083Z,3.50
2019-03-10T02:42:05.917Z,3.40
2019-03-10T02:44:36.604Z,2.77
2019-03-10T02:47:07.122Z,0.27
2019-03-10T02:49:37.689Z,0.07
2019-03-10T02:52:08.277Z,1.40
2019-03-10T02:54:40.824Z,1.00
2019-03-10T02:57:11.215Z,1.20
2019-03-10T02:59:41.693Z,1.13
2019-03-10T03:02:12.177Z,1.63
2019-03-10T03:04:42.625Z,1.00
2019-03-10T03:07:13.154Z,1.60
2019-03-10T03:09:43.558Z,1.43
2019-03-10T03:12:14.110Z,1.07
2019-03-10T03:14:44.745Z,1.40
2019-03-10T03:17:15.351Z,1.50
2019-03-10T03:19:45.901Z,2.07
2019-03-10T03:22:17.154Z,1.70
2019-03-10T03:24:47.775Z,1.73
2019-03-10T03:27:18.317Z,0.10
2019-03-10T03:29:48.837Z,0.10
2019-03-10T03:32:19.258Z,0.10
2019-03-10T03:34:49.706Z,1.83
2019-03-10T03:37:21.913Z,1.20
2019-03-10T03:39:54.118Z,0.00
2019-03-10T03:42:24.551Z,0.10
2019-03-10T03:44:55.090Z,0.10
2019-03-10T03:47:25.536Z,0.10
2019-03-10T03:49:56.042Z,0.40
2019-03-10T03:52:26.512Z,0.10
2019-03-10T03:54:56.934Z,0.13
2019-03-10T03:57:27.481Z,1.67
2019-03-10T03:59:59.085Z,1.27
2019-03-10T04:02:38.645Z,1.63
2019-03-10T04:05:09.438Z,1.27
2019-03-10T04:07:39.993Z,1.70
2019-03-10T04:10:10.554Z,1.33
2019-03-10T04:12:41.036Z,0.87
2019-03-10T04:15:11.682Z,1.90
2019-03-10T04:17:42.095Z,1.53
2019-03-10T04:20:12.843Z,1.50
2019-03-10T04:22:43.285Z,1.80
2019-03-10T04:25:13.819Z,1.57
2019-03-10T04:27:44.323Z,1.63
2019-03-10T04:30:15.075Z,1.93
2019-03-10T04:32:45.587Z,1.47
2019-03-10T04:35:17.066Z,2.17
2019-03-10T04:37:47.568Z,2.53
2019-03-10T04:40:18.092Z,2.50
2019-03-10T04:42:48.517Z,2.60
2019-03-10T04:45:19.894Z,2.37
2019-03-10T04:47:51.719Z,2.40
2019-03-10T04:50:22.261Z,3.40
2019-03-10T04:52:52.775Z,3.83
2019-03-10T04:55:35.291Z,3.43
2019-03-10T04:58:08.274Z,3.50
2019-03-10T05:00:40.276Z,3.93
2019-03-10T05:03:10.818Z,3.67
2019-03-10T05:05:42.586Z,3.47
2019-03-10T05:08:13.062Z,3.63
2019-03-10T05:10:43.590Z,3.60
2019-03-10T05:13:13.951Z,4.00
2019-03-10T05:15:44.541Z,2.87
2019-03-10T05:18:15.173Z,4.10
2019-03-10T05:20:45.642Z,3.73
2019-03-10T05:23:36.855Z,4.50
2019-03-10T05:26:07.609Z,3.77
2019-03-10T05:28:41.043Z,5.33
2019-03-10T05:31:12.645Z,3.60
2019-03-10T05:33:43.165Z,3.47
2019-03-10T05:36:15.268Z,3.87
2019-03-10T05:38:46.449Z,3.00
2019-03-10T05:41:17.082Z,3.40
2019-03-10T05:43:47.513Z,3.80
2019-03-10T05:46:17.873Z,4.37
2019-03-10T05:48:48.305Z,3.33
2019-03-10T05:51:18.880Z,3.47
2019-03-10T05:53:49.580Z,3.40
2019-03-10T05:56:20.131Z,2.90
2019-03-10T05:58:51.386Z,2.70
2019-03-10T06:01:21.869Z,2.67
2019-03-10T06:03:55.823Z,2.70
2019-03-10T06:06:26.225Z,3.00
2019-03-10T06:08:56.670Z,3.10
2019-03-10T06:11:27.218Z,2.20
2019-03-10T06:13:57.656Z,2.20
2019-03-10T06:16:28.375Z,2.63
2019-03-10T06:18:58.864Z,2.40
2019-03-10T06:21:29.498Z,2.30
2019-03-10T06:24:00.101Z,2.40
2019-03-10T06:26:30.653Z,2.10
2019-03-10T06:29:02.182Z,1.97
2019-03-10T06:31:32.727Z,1.47
2019-03-10T06:34:03.174Z,1.73
2019-03-10T06:36:33.720Z,2.10
2019-03-10T06:39:05.599Z,1.87
2019-03-10T06:41:36.067Z,1.70
2019-03-10T06:44:06.647Z,1.57
2019-03-10T06:46:37.123Z,1.87
2019-03-10T06:49:08.668Z,1.63
2019-03-10T06:51:39.246Z,2.10
2019-03-10T06:54:09.782Z,1.70
2019-03-10T06:56:41.307Z,2.47
2019-03-10T06:59:31.003Z,2.10
2019-03-10T07:02:02.442Z,2.33
2019-03-10T07:04:33.247Z,2.73
2019-03-10T07:07:03.677Z,2.30
2019-03-10T07:09:34.155Z,2.10
2019-03-10T07:12:04.672Z,2.17
2019-03-10T07:14:35.114Z,2.37
2019-03-10T07:17:05.670Z,2.50
2019-03-10T07:19:36.119Z,2.60
2019-03-10T07:22:06.498Z,3.10
2019-03-10T07:24:37.127Z,3.20
2019-03-10T07:27:07.654Z,2.50
2019-03-10T07:29:57.229Z,2.57
2019-03-10T07:32:46.791Z,3.27
2019-03-10T07:35:33.305Z,3.13
2019-03-10T07:38:22.821Z,3.47
2019-03-10T07:41:00.282Z,2.83
2019-03-10T07:43:50.061Z,3.10
2019-03-10T07:46:39.518Z,2.67
2019-03-10T07:49:25.011Z,3.20
2019-03-10T07:52:20.275Z,2.77
2019-03-10T07:55:05.629Z,2.50
2019-03-10T07:57:47.955Z,3.37
2019-03-10T08:00:35.825Z,2.87
2019-03-10T08:03:13.402Z,2.80
2019-03-10T08:06:03.835Z,2.80
2019-03-10T08:08:53.278Z,2.87
2019-03-10T08:11:42.901Z,2.73
2019-03-10T08:14:32.408Z,2.80
2019-03-10T08:17:24.758Z,2.80
2019-03-10T08:20:06.424Z,2.40
2019-03-10T08:22:44.733Z,2.80
2019-03-10T08:25:34.333Z,2.77
2019-03-10T08:28:24.043Z,2.80
2019-03-10T08:31:02.285Z,2.50
2019-03-10T08:33:51.819Z,2.73
2019-03-10T08:36:30.004Z,2.67
2019-03-10T08:39:09.984Z,2.93
2019-03-10T08:41:59.564Z,3.20
2019-03-10T08:44:49.014Z,2.90
2019-03-10T08:47:36.478Z,3.00
2019-03-10T08:50:18.723Z,2.90
2019-03-10T08:53:08.294Z,3.37
2019-03-10T08:55:53.963Z,3.07
2019-03-10T08:58:35.209Z,3.30
2019-03-10T09:01:24.773Z,3.13
2019-03-10T09:04:11.654Z,3.07
2019-03-10T09:07:01.212Z,3.23
2019-03-10T09:09:50.805Z,3.70
2019-03-10T09:12:33.711Z,3.10
2019-03-10T09:15:23.631Z,3.73
2019-03-10T09:18:13.309Z,2.20
2019-03-10T09:21:00.908Z,3.00
2019-03-10T09:23:50.442Z,2.83
2019-03-10T09:26:41.773Z,3.20
2019-03-10T09:29:31.349Z,3.00
2019-03-10T09:32:20.812Z,2.97
2019-03-10T09:35:00.279Z,3.50
2019-03-10T09:37:40.045Z,5.00
2019-03-10T09:40:30.313Z,3.80
2019-03-10T09:43:13.283Z,3.40
2019-03-10T09:45:51.289Z,4.67
2019-03-10T09:48:37.050Z,3.90
2019-03-10T09:51:16.174Z,3.97
2019-03-10T09:54:04.101Z,2.90
2019-03-10T09:56:53.661Z,4.27
2019-03-10T09:59:34.269Z,3.47
2019-03-10T10:02:24.170Z,3.97
2019-03-10T10:05:13.774Z,3.13
2019-03-10T10:08:03.576Z,3.37
2019-03-10T10:10:40.106Z,3.10
2019-03-10T10:13:29.383Z,3.23
2019-03-10T10:16:17.450Z,3.30
2019-03-10T10:19:07.283Z,2.90
2019-03-10T10:21:51.142Z,3.30
2019-03-10T10:24:40.594Z,3.00
2019-03-10T10:27:22.299Z,2.60
2019-03-10T10:30:11.962Z,2.97
2019-03-10T10:32:53.711Z,3.03
2019-03-10T10:35:44.781Z,3.90
2019-03-10T10:38:34.643Z,3.50
2019-03-10T10:41:25.410Z,3.00
2019-03-10T10:44:03.804Z,2.73
2019-03-10T10:46:54.781Z,2.67
2019-03-10T10:49:44.478Z,1.77
2019-03-10T10:52:24.338Z,3.00
2019-03-10T10:55:14.385Z,2.87
2019-03-10T10:57:54.766Z,3.37
2019-03-10T11:00:42.941Z,3.30
2019-03-10T11:03:32.280Z,3.20
2019-03-10T11:06:19.656Z,3.67
2019-03-10T11:09:08.593Z,3.73
2019-03-10T11:11:58.767Z,2.97
2019-03-10T11:14:48.375Z,2.97
2019-03-10T11:17:34.905Z,3.13
2019-03-10T11:20:13.925Z,3.03
2019-03-10T11:23:03.841Z,3.63
2019-03-10T11:25:40.761Z,3.20
2019-03-10T11:28:30.800Z,2.77
2019-03-10T11:31:20.461Z,2.73
2019-03-10T11:34:06.124Z,2.80
2019-03-10T11:36:56.209Z,2.70
2019-03-10T11:39:39.572Z,3.93
2019-03-10T11:42:17.792Z,3.13
2019-03-10T11:45:02.145Z,2.70
2019-03-10T11:47:48.982Z,4.13
2019-03-10T11:50:33.184Z,3.40
2019-03-10T11:55:21.154Z,4.10
2019-03-10T11:58:05.605Z,2.87
2019-03-10T12:00:50.165Z,3.03
2019-03-10T12:03:30.699Z,2.80
2019-03-10T12:06:20.306Z,2.60
2019-03-10T12:09:10.958Z,2.33
2019-03-10T12:11:41.911Z,2.93
2019-03-10T12:14:12.692Z,2.90
2019-03-10T12:16:43.357Z,2.73
2019-03-10T12:19:14.334Z,2.83
2019-03-10T12:21:44.874Z,2.90
2019-03-10T12:24:15.791Z,3.53
2019-03-10T12:26:46.547Z,2.73
2019-03-10T12:29:17.174Z,2.87
2019-03-10T12:31:48.604Z,3.00
2019-03-10T12:34:19.263Z,2.93
2019-03-10T12:36:50.048Z,3.30
2019-03-10T12:39:20.767Z,2.90
2019-03-10T12:41:58.513Z,2.90
2019-03-10T12:44:23.753Z,2.77
2019-03-10T12:46:54.374Z,3.00
2019-03-10T12:49:24.995Z,2.97
2019-03-10T12:51:55.695Z,3.80
2019-03-10T12:54:28.312Z,3.80
2019-03-10T12:56:59.012Z,3.37
2019-03-10T12:59:29.665Z,2.60
2019-03-10T13:02:00.402Z,3.10
2019-03-10T13:04:30.972Z,3.57
2019-03-10T13:07:02.894Z,4.00
2019-03-10T13:09:33.415Z,3.37
2019-03-10T13:12:04.065Z,2.90
2019-03-10T13:14:34.892Z,2.90
2019-03-10T13:17:06.742Z,3.53
2019-03-10T13:19:37.381Z,3.27
2019-03-10T13:22:08.072Z,3.00
2019-03-10T13:24:38.742Z,3.13
2019-03-10T13:27:09.593Z,3.43
2019-03-10T13:29:40.230Z,3.50
2019-03-10T13:32:10.984Z,3.90
2019-03-10T13:34:41.711Z,3.33
2019-03-10T13:37:12.620Z,3.30
2019-03-10T13:39:43.508Z,3.43
2019-03-10T13:42:14.515Z,3.53
2019-03-10T13:44:45.233Z,3.53
2019-03-10T13:47:15.903Z,3.67
2019-03-10T13:49:47.856Z,3.20
2019-03-10T13:52:22.271Z,3.93
2019-03-10T13:54:53.092Z,3.27
2019-03-10T13:57:23.751Z,3.67
2019-03-10T13:59:54.548Z,2.80
2019-03-10T14:02:25.380Z,2.93
2019-03-10T14:04:56.576Z,3.00
2019-03-10T14:07:27.318Z,3.63
2019-03-10T14:09:58.045Z,3.30
2019-03-10T14:12:29.000Z,3.60
2019-03-10T14:14:59.779Z,3.43
2019-03-10T14:17:31.682Z,3.70
2019-03-10T14:20:02.451Z,3.77
2019-03-10T14:22:33.532Z,3.53
2019-03-10T14:25:04.644Z,3.93
2019-03-10T14:27:36.021Z,3.63
2019-03-10T14:30:07.301Z,4.17
2019-03-10T14:32:37.969Z,4.00
2019-03-10T14:35:08.704Z,5.80
2019-03-10T14:37:40.820Z,4.40
2019-03-10T14:40:12.044Z,3.93
2019-03-10T14:42:42.805Z,4.10
2019-03-10T14:45:14.285Z,3.57
2019-03-10T14:47:45.063Z,3.60
2019-03-10T14:50:16.621Z,3.67
2019-03-10T14:52:47.405Z,3.70
2019-03-10T14:55:18.373Z,3.63
2019-03-10T14:57:52.364Z,3.57
2019-03-10T15:00:23.501Z,3.70
2019-03-10T15:02:54.881Z,3.33
2019-03-10T15:05:25.821Z,3.47
2019-03-10T15:07:56.735Z,3.50
2019-03-10T15:10:27.609Z,3.27
2019-03-10T15:12:58.211Z,4.20
2019-03-10T15:15:29.012Z,3.10
2019-03-10T15:18:02.761Z,3.43
2019-03-10T15:20:33.416Z,3.77
2019-03-10T15:23:04.189Z,3.77
2019-03-10T15:25:34.874Z,3.80
2019-03-10T15:28:05.792Z,3.53
2019-03-10T15:30:36.724Z,3.40
2019-03-10T15:33:07.475Z,3.67
2019-03-10T15:35:38.509Z,3.50
2019-03-10T15:38:13.726Z,3.77
2019-03-10T15:40:44.553Z,3.77
2019-03-10T15:43:15.546Z,3.50
2019-03-10T15:45:47.677Z,3.70
2019-03-10T15:48:21.591Z,3.93
2019-03-10T15:50:54.092Z,3.87
2019-03-10T15:53:25.126Z,3.67
2019-03-10T15:55:55.772Z,4.33
2019-03-10T15:58:26.890Z,3.70
2019-03-10T16:00:57.831Z,3.53
2019-03-10T16:03:28.780Z,3.87
2019-03-10T16:05:59.804Z,3.43
2019-03-10T16:08:30.752Z,3.73
2019-03-10T16:11:01.523Z,3.63
2019-03-10T16:13:32.319Z,5.17
2019-03-10T16:16:03.304Z,4.27
2019-03-10T16:18:34.133Z,7.33
2019-03-10T16:21:04.887Z,6.30
2019-03-10T16:23:35.621Z,6.23
2019-03-10T16:26:06.392Z,6.30
2019-03-10T16:28:37.245Z,5.87
2019-03-10T16:31:08.232Z,4.97
2019-03-10T16:33:47.914Z,4.77
2019-03-10T16:36:18.866Z,5.97
2019-03-10T16:38:49.625Z,5.67
2019-03-10T16:41:27.936Z,6.70
2019-03-10T16:43:58.642Z,7.17
2019-03-10T16:46:29.509Z,7.27
2019-03-10T16:49:00.768Z,7.13
2019-03-10T16:51:31.563Z,6.37
2019-03-10T16:54:02.602Z,6.33
2019-03-10T16:56:33.401Z,5.67
2019-03-10T16:59:04.631Z,6.30
2019-03-10T17:01:35.341Z,6.60
2019-03-10T17:04:07.132Z,8.20
2019-03-10T17:06:37.817Z,8.37
2019-03-10T17:09:21.941Z,7.90
2019-03-10T17:11:52.864Z,7.47
2019-03-10T17:14:23.530Z,7.70
2019-03-10T17:16:58.781Z,7.50
2019-03-10T17:19:29.531Z,6.67
2019-03-10T17:22:00.542Z,7.80
2019-03-10T17:24:31.588Z,8.07
2019-03-10T17:27:04.818Z,7.90
2019-03-10T17:29:35.243Z,7.17
2019-03-10T17:32:06.543Z,7.50
2019-03-10T17:34:37.585Z,7.43
2019-03-10T17:37:08.429Z,7.53
2019-03-10T17:39:39.160Z,6.83
2019-03-10T17:42:09.821Z,5.50
2019-03-10T17:44:41.771Z,4.90
2019-03-10T17:47:15.453Z,5.10
2019-03-10T17:49:46.190Z,4.70
2019-03-10T17:52:17.138Z,3.80
2019-03-10T17:54:47.741Z,3.30
2019-03-10T17:57:21.278Z,3.27
2019-03-10T17:59:58.311Z,2.80
2019-03-10T18:02:31.285Z,2.70
2019-03-10T18:05:03.001Z,2.43
2019-03-10T18:07:34.021Z,2.20
2019-03-10T18:10:06.414Z,2.17
2019-03-10T18:12:37.527Z,2.30
2019-03-10T18:15:09.440Z,2.20
2019-03-10T18:17:40.550Z,2.30
2019-03-10T18:20:13.029Z,2.33
2019-03-10T18:22:45.899Z,2.07
2019-03-10T18:25:17.019Z,2.53
2019-03-10T18:27:48.129Z,2.87
2019-03-10T18:30:18.973Z,3.03
2019-03-10T18:32:50.001Z,3.43
2019-03-10T18:35:20.865Z,3.23
2019-03-10T18:37:52.124Z,3.10
2019-03-10T18:40:23.076Z,3.50
2019-03-10T18:42:53.896Z,4.63
2019-03-10T18:45:25.109Z,4.63
2019-03-10T18:47:57.719Z,4.43
2019-03-10T18:50:29.369Z,4.33
2019-03-10T18:53:00.335Z,5.13
2019-03-10T18:55:31.155Z,4.80
2019-03-10T18:58:01.925Z,5.50
2019-03-10T19:00:32.751Z,5.63
2019-03-10T19:03:03.756Z,5.97
2019-03-10T19:05:34.591Z,6.03
2019-03-10T19:08:05.549Z,5.70
2019-03-10T19:10:36.408Z,6.13
2019-03-10T19:13:07.154Z,5.93
2019-03-10T19:15:38.048Z,6.23
2019-03-10T19:18:09.016Z,6.83
2019-03-10T19:20:40.944Z,6.43
2019-03-10T19:23:11.715Z,7.20
2019-03-10T19:25:42.515Z,6.87
2019-03-10T19:28:13.226Z,7.07
2019-03-10T19:30:44.016Z,8.20
2019-03-10T19:33:14.794Z,7.87
2019-03-10T19:35:45.794Z,6.90
2019-03-10T19:38:16.656Z,6.77
2019-03-10T19:40:47.535Z,5.93
2019-03-10T19:43:18.445Z,6.70
2019-03-10T19:45:49.400Z,7.97
2019-03-10T19:48:20.465Z,9.10
2019-03-10T19:50:51.293Z,10.43
2019-03-10T19:53:21.977Z,11.50
2019-03-10T19:55:55.703Z,15.30
2019-03-10T19:58:26.374Z,13.10
2019-03-10T20:00:57.024Z,13.57
2019-03-10T20:03:27.715Z,13.60
2019-03-10T20:05:58.324Z,13.13
2019-03-10T20:08:29.054Z,13.43
2019-03-10T20:10:59.946Z,13.27
2019-03-10T20:13:30.664Z,13.87
2019-03-10T20:16:05.463Z,14.27
2019-03-10T20:18:36.079Z,12.93
2019-03-10T20:21:06.826Z,11.90
2019-03-10T20:23:37.561Z,12.43
2019-03-10T20:26:08.276Z,11.83
2019-03-10T20:28:39.155Z,12.00
2019-03-10T20:31:10.034Z,11.50
2019-03-10T20:33:40.836Z,11.40
2019-03-10T20:36:11.487Z,10.77
2019-03-10T20:38:42.123Z,11.87
2019-03-10T20:41:12.730Z,11.00
2019-03-10T20:43:44.489Z,11.30
2019-03-10T20:46:17.855Z,10.43
2019-03-10T20:48:51.495Z,10.50
2019-03-10T20:51:23.105Z,10.00
2019-03-10T20:53:56.526Z,11.30
2019-03-10T20:56:31.246Z,11.63
2019-03-10T20:59:05.487Z,12.90
2019-03-10T21:01:39.583Z,14.53
2019-03-10T21:04:10.269Z,17.10
2019-03-10T21:06:40.998Z,17.63
2019-03-10T21:09:14.348Z,17.07
2019-03-10T21:11:47.184Z,17.63
2019-03-10T21:14:18.184Z,20.17
2019-03-10T21:16:48.816Z,20.53
2019-03-10T21:19:19.936Z,20.00
2019-03-10T21:21:50.815Z,20.70
2019-03-10T21:24:23.278Z,20.07
2019-03-10T21:26:54.014Z,20.00
2019-03-10T21:29:24.944Z,19.30
2019-03-10T21:31:55.575Z,18.17
2019-03-10T21:34:26.363Z,19.10
2019-03-10T21:36:56.961Z,18.50
2019-03-10T21:39:34.537Z,17.60
2019-03-10T21:41:59.937Z,17.37
2019-03-10T21:44:30.563Z,18.37
2019-03-10T21:47:01.259Z,19.13
2019-03-10T21:49:32.851Z,20.63
2019-03-10T21:52:03.382Z,21.60
2019-03-10T21:54:33.833Z,21.37
2019-03-10T21:57:04.535Z,21.23
2019-03-10T21:59:35.069Z,22.17
2019-03-10T22:02:05.495Z,22.60
2019-03-10T22:04:36.024Z,24.17
2019-03-10T22:07:06.644Z,22.47
2019-03-10T22:09:37.172Z,24.37
2019-03-10T22:12:07.633Z,23.87
2019-03-10T22:14:38.248Z,24.40
2019-03-10T22:17:08.661Z,25.17
2019-03-10T22:19:39.119Z,24.40
2019-03-10T22:22:09.642Z,23.77
2019-03-10T22:24:41.254Z,24.40
2019-03-10T22:27:11.695Z,23.80
2019-03-10T22:29:42.644Z,24.10
2019-03-10T22:32:14.902Z,24.33
2019-03-10T22:34:45.368Z,25.77
2019-03-10T22:37:17.525Z,26.50
2019-03-10T22:39:48.098Z,28.80
2019-03-10T22:42:18.602Z,30.07
2019-03-10T22:44:49.041Z,30.53
2019-03-10T22:47:19.534Z,30.20
2019-03-10T22:49:50.060Z,31.00
2019-03-10T22:52:20.590Z,30.83
2019-03-10T22:54:51.110Z,29.67
2019-03-10T22:57:21.640Z,30.43
2019-03-10T22:59:54.990Z,30.23
2019-03-10T23:02:25.374Z,28.07
2019-03-10T23:04:55.892Z,28.40
2019-03-10T23:07:26.287Z,27.33
2019-03-10T23:09:56.802Z,27.07
2019-03-10T23:12:27.303Z,29.87
2019-03-10T23:14:57.834Z,24.73
2019-03-10T23:17:28.257Z,27.77
2019-03-10T23:19:58.752Z,17.77
2019-03-10T23:22:29.416Z,17.43
2019-03-10T23:25:01.682Z,18.43
2019-03-10T23:27:32.085Z,15.47
2019-03-10T23:30:02.610Z,16.93
2019-03-10T23:32:34.538Z,17.03
2019-03-10T23:35:05.291Z,13.27
2019-03-10T23:37:36.968Z,13.00
2019-03-10T23:40:08.083Z,11.83
2019-03-10T23:42:38.532Z,9.27
2019-03-10T23:45:10.278Z,14.43
2019-03-10T23:47:40.727Z,16.27
2019-03-10T23:50:12.931Z,15.53
2019-03-10T23:52:43.909Z,13.63
2019-03-10T23:55:15.424Z,12.37
2019-03-10T23:57:46.610Z,11.97
